Jean Marie River, Canada
Current Conditions -  °F | °C
As of 2:00 PM on Tuesday 27 Jan 2015 (Local Time) from CYFS Reporting Station
Scattered Clouds Scattered Clouds  
Wind Chill: -15°   Ceiling: Unl
Heat Index: -15°   Visibility: 15mi
Dew Point: -24°   Wind: 3mph
Humidity: 64%   Direction: 140°SE
Pressure: 30.25"   Gusts: NA
Location:  61.52°N, 120.63°W
Report Text: CYFS 272100Z 14003KT 080V170 15SM FEW090 SCT210 M26/M31 A3025 RMK AC1CI2 SLP271
Loading
Personal Weather Stations






























Interactive Weather Map New forecast layout! Learn more

10-Day Weather Forecast

Advertisements
Track Severe Weather on mobile